Time;durP1;ratioP1;P1;durP2;ratioP2;P2;SDS_P1;SDS_P2;PMS_P1;PMS_P2;Temp;Humidity;BMP_temperature;BMP_pressure;BME280_temperature;BME280_humidity;BME280_pressure;Samples;Min_cycle;Max_cycle;Signal;HPM_P1;HPM_P2
2022/01/25 00:09:49;;;;;;;45.90;26.17;;;4.40;99.90;;;;;;5036743;28;20533;-86
2022/01/25 00:28:44;;;;;;;46.25;27.15;;;4.40;99.90;;;;;;5018693;28;20069;-86
2022/01/25 00:31:12;;;;;;;45.17;26.17;;;4.40;99.90;;;;;;5016982;28;20414;-86
2022/01/25 00:33:51;;;;;;;47.08;25.98;;;5.80;99.90;;;;;;5014782;28;20034;-86
2022/01/25 00:36:19;;;;;;;46.17;26.48;;;4.40;99.90;;;;;;5022355;28;20033;-86
2022/01/25 00:38:45;;;;;;;43.17;26.05;;;4.40;99.90;;;;;;5036816;28;20485;-86
2022/01/25 00:41:11;;;;;;;49.38;27.73;;;6.00;99.90;;;;;;5010302;28;20094;-86
2022/01/25 00:43:38;;;;;;;50.28;26.63;;;5.50;99.90;;;;;;5022155;28;20037;-86
2022/01/25 00:46:10;;;;;;;44.78;25.38;;;4.30;99.90;;;;;;5019539;28;20040;-86
2022/01/25 00:48:47;;;;;;;47.03;25.73;;;5.90;99.90;;;;;;5018329;28;20565;-86
2022/01/25 00:54:10;;;;;;;48.17;26.58;;;4.30;99.90;;;;;;5037452;28;20088;-86
2022/01/25 00:56:38;;;;;;;45.45;25.90;;;4.30;99.90;;;;;;5037878;28;20049;-86
2022/01/25 00:59:10;;;;;;;46.95;26.33;;;4.30;99.90;;;;;;5036168;28;20041;-87
2022/01/25 01:01:38;;;;;;;44.90;25.05;;;4.90;99.90;;;;;;5030279;28;20040;-86
2022/01/25 01:04:05;;;;;;;46.20;26.52;;;5.90;99.90;;;;;;5016068;28;20038;-86
2022/01/25 01:06:31;;;;;;;46.15;25.75;;;4.30;99.90;;;;;;5021403;28;20048;-86
2022/01/25 01:08:57;;;;;;;47.10;25.70;;;5.20;99.90;;;;;;5022627;28;20033;-86
2022/01/25 01:11:32;;;;;;;46.40;26.25;;;4.40;99.90;;;;;;5014161;28;20072;-86
2022/01/25 01:43:36;;;;;;;46.17;25.67;;;4.30;99.90;;;;;;5036374;28;20033;-86
2022/01/25 01:48:34;;;;;;;48.20;27.35;;;4.30;99.90;;;;;;5038128;28;20077;-86
2022/01/25 01:51:08;;;;;;;47.40;27.02;;;4.90;99.90;;;;;;5036618;28;20143;-86
2022/01/25 01:53:35;;;;;;;49.42;27.45;;;5.20;99.90;;;;;;5045180;28;20390;-85
2022/01/25 01:56:01;;;;;;;48.55;27.58;;;4.30;99.90;;;;;;5036309;28;20040;-86
2022/01/25 01:58:27;;;;;;;47.17;28.05;;;4.30;99.90;;;;;;5024533;28;20098;-87
2022/01/25 02:00:53;;;;;;;48.90;27.70;;;5.60;99.90;;;;;;5034986;28;20057;-86
2022/01/25 02:03:20;;;;;;;47.92;28.80;;;5.20;99.90;;;;;;5032412;28;20525;-86
2022/01/25 02:05:46;;;;;;;47.90;27.77;;;5.20;99.90;;;;;;5007756;28;20493;-86
2022/01/25 02:08:12;;;;;;;46.92;27.60;;;5.60;99.90;;;;;;5007890;28;20055;-86
2022/01/25 02:10:38;;;;;;;48.97;28.10;;;4.80;99.90;;;;;;5007426;28;20037;-86
2022/01/25 02:13:07;;;;;;;51.33;28.20;;;5.50;99.90;;;;;;5020908;28;20403;-86
2022/01/25 02:15:36;;;;;;;50.28;28.73;;;5.40;99.90;;;;;;5025092;28;20561;-86
2022/01/25 02:23:31;;;;;;;47.80;28.20;;;4.30;99.90;;;;;;5026649;28;20394;-86
2022/01/25 02:25:58;;;;;;;49.53;27.85;;;4.60;99.90;;;;;;5022115;28;20123;-86
2022/01/25 02:28:29;;;;;;;51.53;28.73;;;4.30;99.90;;;;;;5025275;28;20052;-86
2022/01/25 02:30:56;;;;;;;52.10;29.42;;;4.20;99.90;;;;;;5035931;28;20232;-86
2022/01/25 02:33:22;;;;;;;50.35;29.52;;;5.60;99.90;;;;;;5012422;28;20072;-86
2022/01/25 02:35:48;;;;;;;51.58;29.30;;;6.00;99.90;;;;;;5028717;28;20154;-87
2022/01/25 02:38:19;;;;;;;53.22;30.20;;;5.80;99.90;;;;;;5015977;28;20222;-87
2022/01/25 02:40:44;;;;;;;51.72;29.75;;;4.30;99.90;;;;;;5027821;28;20072;-86
2022/01/25 02:43:12;;;;;;;50.55;30.00;;;4.30;99.90;;;;;;5023818;28;20069;-86
2022/01/25 02:45:38;;;;;;;51.22;29.67;;;5.60;99.90;;;;;;5009516;28;20108;-87
2022/01/25 02:50:49;;;;;;;50.15;28.65;;;4.20;99.90;;;;;;5036202;28;20042;-86
2022/01/25 02:53:16;;;;;;;53.28;30.27;;;5.20;99.90;;;;;;5035845;28;20068;-86
2022/01/25 02:55:42;;;;;;;51.10;29.10;;;4.30;99.90;;;;;;5023188;28;20040;-87
2022/01/25 02:58:08;;;;;;;52.08;29.15;;;4.30;99.90;;;;;;5020185;28;20041;-87
2022/01/25 03:00:35;;;;;;;49.60;28.23;;;4.30;99.90;;;;;;5037195;28;20068;-86
2022/01/25 03:03:00;;;;;;;49.90;28.00;;;4.70;99.90;;;;;;5028687;28;20029;-86
2022/01/25 03:05:27;;;;;;;48.20;28.40;;;5.80;99.90;;;;;;5012541;28;20498;-86
2022/01/25 03:07:54;;;;;;;49.22;28.80;;;4.20;99.90;;;;;;5015785;28;20087;-86
2022/01/25 03:10:20;;;;;;;54.38;30.08;;;4.20;99.90;;;;;;5016092;28;20041;-86
2022/01/25 03:12:51;;;;;;;50.72;28.27;;;5.70;99.90;;;;;;5039992;28;20091;-86
2022/01/25 03:17:55;;;;;;;49.25;27.65;;;5.90;99.90;;;;;;5016291;28;20056;-85
2022/01/25 03:20:34;;;;;;;47.65;28.50;;;5.30;99.90;;;;;;5029737;28;20433;-87
2022/01/25 03:23:05;;;;;;;50.22;27.77;;;4.30;99.90;;;;;;5022500;28;20025;-86
2022/01/25 03:25:32;;;;;;;49.58;27.38;;;4.30;99.90;;;;;;5026267;28;20432;-86
2022/01/25 03:27:59;;;;;;;50.10;28.10;;;5.60;99.90;;;;;;5023399;28;20080;-87
2022/01/25 03:30:26;;;;;;;50.25;28.27;;;5.20;99.90;;;;;;5053418;28;20045;-85
2022/01/25 03:32:51;;;;;;;50.67;28.67;;;5.50;99.90;;;;;;5009103;28;20164;-86
2022/01/25 03:35:17;;;;;;;48.28;28.23;;;5.30;99.90;;;;;;5038934;28;20120;-86
2022/01/25 03:37:43;;;;;;;48.47;27.45;;;4.30;99.90;;;;;;5027191;28;20041;-86
2022/01/25 03:40:10;;;;;;;49.25;27.27;;;4.20;99.90;;;;;;5018547;28;20045;-85
2022/01/25 03:42:38;;;;;;;47.88;28.38;;;4.20;99.90;;;;;;5003193;28;20135;-86
2022/01/25 03:45:06;;;;;;;47.67;27.65;;;4.50;99.90;;;;;;5026466;28;20048;-86
2022/01/25 03:47:56;;;;;;;49.53;28.10;;;4.20;99.90;;;;;;5037970;28;20044;-86
2022/01/25 03:50:17;;;;;;;49.83;27.98;;;4.20;99.90;;;;;;5019332;28;20184;-87
2022/01/25 03:52:43;;;;;;;47.63;26.88;;;4.20;99.90;;;;;;5012835;28;20119;-86
2022/01/25 03:55:09;;;;;;;47.60;27.45;;;4.20;99.90;;;;;;5021635;28;20041;-86
2022/01/25 03:57:34;;;;;;;45.92;27.77;;;5.10;99.90;;;;;;5014231;28;20041;-86
2022/01/25 04:00:00;;;;;;;46.42;26.65;;;4.80;99.90;;;;;;5005485;28;20075;-87
2022/01/25 04:02:30;;;;;;;50.08;28.88;;;4.20;99.90;;;;;;5020403;28;20049;-86
2022/01/25 04:04:58;;;;;;;47.70;27.42;;;4.20;99.90;;;;;;5037619;28;20064;-85
2022/01/25 04:07:43;;;;;;;51.13;28.20;;;4.20;99.90;;;;;;5029816;28;20116;-86
2022/01/25 04:10:09;;;;;;;47.92;27.13;;;4.20;99.90;;;;;;5033328;28;20045;-85
2022/01/25 04:12:35;;;;;;;52.70;28.40;;;4.90;99.90;;;;;;5018764;28;20052;-87
2022/01/25 04:15:02;;;;;;;47.60;26.30;;;5.30;99.90;;;;;;5028863;28;20049;-86
2022/01/25 04:17:28;;;;;;;49.13;27.73;;;4.20;99.90;;;;;;5026822;28;20517;-86
2022/01/25 04:25:22;;;;;;;51.78;28.25;;;4.20;99.90;;;;;;5036892;28;20041;-86
2022/01/25 04:27:47;;;;;;;48.80;27.63;;;4.20;99.90;;;;;;5018460;28;20056;-86
2022/01/25 04:30:13;;;;;;;48.60;27.48;;;4.20;99.90;;;;;;5004584;28;20037;-86
2022/01/25 04:32:48;;;;;;;52.80;28.90;;;5.90;99.90;;;;;;5033427;28;20037;-86
2022/01/25 04:51:46;;;;;;;47.67;27.00;;;4.20;99.90;;;;;;5004567;28;20110;-86
2022/01/25 05:01:55;;;;;;;49.00;28.23;;;4.20;99.90;;;;;;5034359;28;20040;-86
2022/01/25 05:04:27;;;;;;;48.28;27.65;;;5.00;99.90;;;;;;5003164;28;20739;-86
2022/01/25 05:06:56;;;;;;;50.67;28.60;;;4.20;99.90;;;;;;5015624;28;20121;-86
2022/01/25 05:09:22;;;;;;;48.95;27.02;;;5.40;99.90;;;;;;5021729;28;20352;-86
2022/01/25 05:11:50;;;;;;;47.92;27.58;;;5.30;99.90;;;;;;5018791;28;20486;-86
2022/01/25 05:14:25;;;;;;;48.25;27.00;;;4.20;99.90;;;;;;5009307;28;20068;-86
2022/01/25 05:16:55;;;;;;;47.90;26.73;;;4.20;99.90;;;;;;5018580;28;20041;-86
2022/01/25 05:24:40;;;;;;;47.35;27.13;;;5.40;99.90;;;;;;5034551;28;20123;-86
2022/01/25 05:27:07;;;;;;;47.92;29.15;;;5.40;99.90;;;;;;5026469;28;20322;-86
2022/01/25 05:29:33;;;;;;;49.95;27.40;;;4.20;99.90;;;;;;5005474;28;20045;-86
2022/01/25 05:31:59;;;;;;;52.15;28.17;;;4.20;99.90;;;;;;5026966;28;20121;-86
2022/01/25 05:34:26;;;;;;;52.10;28.17;;;4.20;99.90;;;;;;5009354;28;20116;-86
2022/01/25 05:36:51;;;;;;;49.40;28.60;;;5.10;99.90;;;;;;5015900;28;20083;-86
2022/01/25 05:39:22;;;;;;;53.22;30.85;;;4.90;99.90;;;;;;5004592;28;20049;-86
2022/01/25 05:41:56;;;;;;;49.47;28.30;;;5.40;99.90;;;;;;5020879;28;20037;-86
2022/01/25 05:44:37;;;;;;;47.85;28.33;;;5.20;99.90;;;;;;5006484;28;20037;-86
2022/01/25 05:47:12;;;;;;;50.70;27.98;;;5.60;99.90;;;;;;5010586;28;20036;-86
2022/01/25 05:49:38;;;;;;;50.33;28.48;;;4.20;99.90;;;;;;5035930;28;20037;-85
2022/01/25 05:52:06;;;;;;;50.78;28.70;;;4.20;99.90;;;;;;5019368;28;20094;-86
2022/01/25 05:54:31;;;;;;;50.10;27.63;;;4.20;99.90;;;;;;5004168;28;20124;-86
2022/01/25 05:56:57;;;;;;;50.25;27.92;;;4.20;99.90;;;;;;5005653;28;20132;-86
2022/01/25 05:59:23;;;;;;;51.17;27.70;;;4.20;99.90;;;;;;5037620;28;20100;-86
2022/01/25 06:01:49;;;;;;;54.08;28.35;;;5.30;99.90;;;;;;5021953;28;20038;-86
2022/01/25 06:04:15;;;;;;;52.13;27.60;;;4.50;99.90;;;;;;5035355;28;20094;-86
2022/01/25 06:06:41;;;;;;;50.45;28.33;;;5.80;99.90;;;;;;5028968;28;20052;-85
2022/01/25 06:09:07;;;;;;;55.40;29.00;;;5.00;99.90;;;;;;5010951;28;20038;-85
2022/01/25 06:11:34;;;;;;;49.88;27.95;;;4.20;99.90;;;;;;5023856;28;20040;-85
2022/01/25 06:14:00;;;;;;;49.58;28.38;;;5.30;99.90;;;;;;5031514;28;20060;-85
2022/01/25 06:16:28;;;;;;;49.58;28.45;;;5.80;99.90;;;;;;5023317;28;20094;-85
2022/01/25 06:18:55;;;;;;;50.63;28.40;;;6.00;99.90;;;;;;5009969;28;20132;-85
2022/01/25 06:21:21;;;;;;;51.40;28.17;;;4.60;99.90;;;;;;5023654;28;20147;-85
2022/01/25 06:23:47;;;;;;;50.80;27.45;;;5.40;99.90;;;;;;5015263;28;20108;-86
2022/01/25 06:26:13;;;;;;;53.53;29.25;;;5.20;99.90;;;;;;4996679;28;20502;-86
2022/01/25 06:28:39;;;;;;;52.67;29.73;;;4.30;99.90;;;;;;5008993;28;20229;-86
2022/01/25 06:31:04;;;;;;;48.92;28.45;;;4.20;99.90;;;;;;5002866;28;20574;-87
2022/01/25 06:33:30;;;;;;;47.78;27.50;;;4.70;99.90;;;;;;5020328;28;20045;-86
2022/01/25 06:35:56;;;;;;;51.00;30.05;;;5.80;99.90;;;;;;5006926;28;20394;-86
2022/01/25 06:38:22;;;;;;;47.35;27.60;;;5.40;99.90;;;;;;5020187;28;20124;-86
2022/01/25 06:40:48;;;;;;;46.45;28.02;;;4.30;99.90;;;;;;5011843;28;20136;-87
2022/01/25 06:43:14;;;;;;;49.42;27.70;;;4.60;99.90;;;;;;5009765;28;20037;-86
2022/01/25 06:45:41;;;;;;;50.17;29.02;;;5.10;99.90;;;;;;5002850;28;20037;-86
2022/01/25 06:48:07;;;;;;;47.00;27.90;;;5.80;99.90;;;;;;4998311;28;20026;-86
2022/01/25 06:50:33;;;;;;;51.83;28.52;;;5.20;99.90;;;;;;5033810;28;20621;-86
2022/01/25 06:52:59;;;;;;;51.28;27.85;;;5.20;99.90;;;;;;5012120;28;20402;-86
2022/01/25 06:55:25;;;;;;;49.60;28.65;;;4.30;99.90;;;;;;5006369;28;20052;-87
2022/01/25 06:57:51;;;;;;;50.75;28.83;;;4.30;99.90;;;;;;5024554;28;20040;-86
2022/01/25 07:00:20;;;;;;;52.78;29.15;;;5.80;99.90;;;;;;5002629;28;20346;-85
2022/01/25 07:02:46;;;;;;;49.40;28.33;;;5.70;99.90;;;;;;5022782;28;20029;-85
2022/01/25 07:05:13;;;;;;;49.33;28.83;;;4.90;99.90;;;;;;5031098;28;20039;-87
2022/01/25 07:07:39;;;;;;;49.40;27.10;;;4.30;99.90;;;;;;5006893;28;20072;-87
2022/01/25 07:10:06;;;;;;;49.45;28.23;;;5.50;99.90;;;;;;5019568;28;20100;-86
2022/01/25 07:12:32;;;;;;;50.83;28.23;;;4.30;99.90;;;;;;5034987;28;20142;-86
2022/01/25 07:14:58;;;;;;;51.15;27.95;;;5.80;99.90;;;;;;5029535;28;20244;-86
2022/01/25 07:17:24;;;;;;;50.45;27.70;;;4.30;99.90;;;;;;5017952;28;20190;-86
2022/01/25 07:19:50;;;;;;;50.10;27.70;;;4.30;99.90;;;;;;5004884;28;20048;-87
2022/01/25 07:22:16;;;;;;;50.60;28.13;;;5.30;99.90;;;;;;4993178;28;20481;-86
2022/01/25 07:24:42;;;;;;;49.88;27.48;;;5.40;99.90;;;;;;5031327;28;20120;-87
2022/01/25 07:27:08;;;;;;;52.22;28.75;;;4.30;99.90;;;;;;5026300;28;20135;-86
2022/01/25 07:29:34;;;;;;;50.65;29.00;;;4.30;99.90;;;;;;5026964;28;20077;-86
2022/01/25 07:32:00;;;;;;;49.60;27.10;;;4.30;99.90;;;;;;5006614;28;20162;-86
2022/01/25 07:34:26;;;;;;;51.35;27.30;;;6.20;99.90;;;;;;5023612;28;20041;-88
2022/01/25 07:36:52;;;;;;;51.13;28.17;;;5.70;99.90;;;;;;5029559;28;20048;-85
2022/01/25 07:39:18;;;;;;;52.47;29.08;;;5.30;99.90;;;;;;5029552;28;20120;-87
2022/01/25 07:41:45;;;;;;;50.10;28.52;;;6.10;99.90;;;;;;5007680;28;20112;-88
2022/01/25 07:44:12;;;;;;;48.45;27.50;;;5.70;99.90;;;;;;5024609;28;20116;-87
2022/01/25 07:46:38;;;;;;;51.30;28.77;;;5.30;99.90;;;;;;5019165;28;20037;-86
2022/01/25 07:49:04;;;;;;;51.38;28.15;;;4.90;99.90;;;;;;5024987;28;20571;-87
2022/01/25 07:51:30;;;;;;;53.92;28.63;;;4.40;99.90;;;;;;5003437;28;20506;-86
2022/01/25 07:53:59;;;;;;;52.88;28.67;;;4.30;99.90;;;;;;5026750;28;20045;-88
2022/01/25 07:56:25;;;;;;;49.22;27.85;;;4.30;99.90;;;;;;5026619;28;20425;-87
2022/01/25 07:58:52;;;;;;;53.28;28.98;;;4.30;99.90;;;;;;5025920;28;20041;-89
2022/01/25 08:01:19;;;;;;;57.67;30.13;;;4.30;99.90;;;;;;5010482;28;20041;-88
2022/01/25 08:03:44;;;;;;;50.28;28.75;;;4.30;99.90;;;;;;5018155;28;20084;-87
2022/01/25 08:06:12;;;;;;;55.33;30.70;;;4.30;99.90;;;;;;5003358;28;20034;-89
2022/01/25 08:08:38;;;;;;;52.72;28.73;;;4.30;99.90;;;;;;5028081;28;20091;-89
2022/01/25 08:11:04;;;;;;;50.78;29.02;;;4.30;99.90;;;;;;5022846;28;20148;-86
2022/01/25 08:13:30;;;;;;;53.75;30.08;;;4.30;99.90;;;;;;5006517;28;20538;-88
2022/01/25 08:15:56;;;;;;;51.50;28.60;;;4.30;99.90;;;;;;5007509;28;20154;-87
2022/01/25 08:18:22;;;;;;;52.38;29.08;;;4.30;99.90;;;;;;5010916;28;20124;-89
2022/01/25 08:20:48;;;;;;;51.53;28.88;;;5.50;99.90;;;;;;5008417;28;20033;-89
2022/01/25 08:23:14;;;;;;;52.47;28.42;;;4.30;99.90;;;;;;5012283;28;20044;-87
2022/01/25 08:25:40;;;;;;;54.13;29.67;;;4.30;99.90;;;;;;5020352;28;20485;-89
2022/01/25 08:28:06;;;;;;;50.20;28.52;;;4.40;99.90;;;;;;5012524;28;20076;-88
2022/01/25 08:30:31;;;;;;;54.17;28.17;;;4.20;99.90;;;;;;5003284;28;20049;-87
2022/01/25 08:32:57;;;;;;;53.88;29.50;;;5.60;99.90;;;;;;5039553;28;20075;-87
2022/01/25 08:35:24;;;;;;;53.58;29.65;;;4.30;99.90;;;;;;5013412;28;20044;-88
2022/01/25 08:37:50;;;;;;;52.88;29.63;;;4.30;99.90;;;;;;5005742;28;20045;-86
2022/01/25 08:40:16;;;;;;;52.72;29.85;;;6.10;99.90;;;;;;5018813;28;20441;-90
2022/01/25 08:42:42;;;;;;;49.67;28.50;;;5.50;99.90;;;;;;5030846;28;20045;-88
2022/01/25 08:45:10;;;;;;;54.30;30.55;;;4.30;99.90;;;;;;5004885;28;20501;-86
2022/01/25 08:47:36;;;;;;;50.92;29.02;;;4.40;99.90;;;;;;4999150;28;20076;-88
2022/01/25 08:50:06;;;;;;;52.53;29.35;;;4.60;99.90;;;;;;5012236;28;20079;-87
2022/01/25 08:52:31;;;;;;;56.78;29.67;;;4.40;99.90;;;;;;5022537;28;20040;-88
2022/01/25 08:54:57;;;;;;;53.38;29.80;;;4.40;99.90;;;;;;5005880;28;20482;-88
2022/01/25 08:57:23;;;;;;;53.47;30.08;;;5.50;99.90;;;;;;4995488;28;20045;-88
2022/01/25 08:59:49;;;;;;;54.83;29.00;;;5.70;99.90;;;;;;4999266;28;20033;-86
2022/01/25 09:02:14;;;;;;;55.05;30.42;;;5.80;99.90;;;;;;4992019;28;20401;-87
2022/01/25 09:04:40;;;;;;;56.38;29.67;;;5.70;99.90;;;;;;5001939;28;20037;-89
2022/01/25 09:07:06;;;;;;;55.30;29.60;;;5.80;99.90;;;;;;5026250;28;20125;-88
2022/01/25 09:09:32;;;;;;;52.45;30.30;;;4.40;99.90;;;;;;5021497;28;20041;-90
2022/01/25 09:11:58;;;;;;;53.33;28.38;;;5.30;99.90;;;;;;4995551;28;20186;-89
2022/01/25 09:14:24;;;;;;;56.95;30.15;;;4.40;99.90;;;;;;5001927;28;20328;-87
2022/01/25 09:16:50;;;;;;;53.75;28.42;;;4.40;99.90;;;;;;5020711;28;20029;-89
2022/01/25 09:19:16;;;;;;;53.88;29.15;;;4.40;99.90;;;;;;5005245;28;20594;-88
2022/01/25 09:21:42;;;;;;;54.80;29.25;;;5.90;99.90;;;;;;4994856;28;20100;-88
2022/01/25 09:24:09;;;;;;;56.15;30.75;;;6.00;99.90;;;;;;5005466;28;20068;-88
2022/01/25 09:26:35;;;;;;;56.10;30.17;;;5.80;99.90;;;;;;5015487;28;20037;-88
2022/01/25 09:29:01;;;;;;;58.22;29.50;;;4.40;99.90;;;;;;5009028;28;20044;-88
2022/01/25 09:31:27;;;;;;;53.55;29.10;;;5.80;99.90;;;;;;5025481;28;20049;-87
2022/01/25 09:33:53;;;;;;;53.65;30.00;;;4.40;99.90;;;;;;5007366;28;20125;-90
2022/01/25 09:36:19;;;;;;;56.05;30.70;;;5.40;99.90;;;;;;5031378;28;20041;-88
2022/01/25 09:38:45;;;;;;;57.45;30.50;;;5.00;99.90;;;;;;4998941;28;20394;-89
2022/01/25 09:41:12;;;;;;;61.80;32.25;;;4.40;99.90;;;;;;5027488;28;20049;-88
2022/01/25 09:43:37;;;;;;;58.53;30.30;;;4.50;99.90;;;;;;5005698;28;20430;-87
2022/01/25 09:46:03;;;;;;;56.75;30.85;;;6.20;99.90;;;;;;5024093;28;20030;-88
2022/01/25 09:48:29;;;;;;;57.55;31.27;;;4.50;99.90;;;;;;5015039;28;20040;-88
2022/01/25 09:50:59;;;;;;;54.92;30.10;;;4.50;99.90;;;;;;5025072;28;20088;-89
2022/01/25 09:53:25;;;;;;;55.83;29.90;;;4.50;99.90;;;;;;5030424;28;20434;-89
2022/01/25 09:55:52;;;;;;;58.85;31.08;;;;;;;;;;5041971;28;20569;-88
2022/01/25 09:58:17;;;;;;;55.17;29.92;;;4.50;99.90;;;;;;5016562;28;20524;-90
2022/01/25 10:00:47;;;;;;;53.78;29.35;;;4.40;99.90;;;;;;5025786;28;20041;-91
2022/01/25 10:03:25;;;;;;;58.78;30.27;;;6.20;99.90;;;;;;5025905;28;20032;-90
2022/01/25 10:05:55;;;;;;;59.47;31.15;;;4.50;99.90;;;;;;5020772;28;20049;-88
2022/01/25 10:08:28;;;;;;;53.70;29.80;;;4.60;99.90;;;;;;5015875;28;20626;-88
2022/01/25 10:10:59;;;;;;;58.05;31.40;;;4.50;99.90;;;;;;5023234;28;20120;-88
2022/01/25 10:13:36;;;;;;;55.42;30.00;;;4.50;99.90;;;;;;5027746;28;20045;-87
2022/01/25 10:16:07;;;;;;;57.08;29.65;;;4.70;99.90;;;;;;5042358;28;20512;-87
2022/01/25 10:18:44;;;;;;;58.85;28.95;;;4.50;99.90;;;;;;5018720;28;20124;-86
2022/01/25 10:21:31;;;;;;;58.33;29.15;;;4.50;99.90;;;;;;5021154;28;20060;-89
2022/01/25 10:24:10;;;;;;;54.25;29.48;;;4.50;99.90;;;;;;5021417;28;20482;-91
2022/01/25 10:26:46;;;;;;;57.75;30.38;;;4.60;99.90;;;;;;5025137;28;20146;-89
2022/01/25 10:29:15;;;;;;;57.58;30.33;;;6.00;99.90;;;;;;5026530;28;20056;-88
2022/01/25 10:31:47;;;;;;;58.10;30.10;;;4.50;99.90;;;;;;5021428;28;20056;-88
2022/01/25 10:34:17;;;;;;;56.38;29.15;;;4.60;99.90;;;;;;5025236;28;20040;-89
2022/01/25 10:36:46;;;;;;;58.08;31.25;;;4.60;99.90;;;;;;5028664;28;20394;-89
2022/01/25 10:39:18;;;;;;;54.00;29.40;;;6.20;99.90;;;;;;5025642;28;20041;-87
2022/01/25 10:41:44;;;;;;;54.00;29.33;;;4.60;99.90;;;;;;5039827;28;20042;-89
2022/01/25 10:44:10;;;;;;;57.03;30.30;;;5.40;99.90;;;;;;5009246;28;20044;-88
2022/01/25 10:46:36;;;;;;;55.08;29.08;;;4.60;99.90;;;;;;5024994;28;20088;-87
2022/01/25 10:49:08;;;;;;;53.95;29.33;;;4.60;99.90;;;;;;5024127;28;20056;-89
2022/01/25 10:51:40;;;;;;;54.15;29.65;;;4.60;99.90;;;;;;5024428;28;20056;-89
2022/01/25 10:54:06;;;;;;;56.22;29.25;;;4.60;99.90;;;;;;5020955;28;20124;-89
2022/01/25 10:56:43;;;;;;;57.63;30.77;;;5.90;99.90;;;;;;5019721;28;20128;-86
2022/01/25 10:59:13;;;;;;;57.05;29.50;;;4.60;99.90;;;;;;5037804;28;20045;-85
2022/01/25 11:01:45;;;;;;;57.47;29.60;;;4.60;99.90;;;;;;5026389;28;20119;-86
2022/01/25 11:04:14;;;;;;;56.42;29.73;;;5.90;99.90;;;;;;5028521;28;20075;-86
2022/01/25 11:06:40;;;;;;;58.30;30.70;;;5.10;99.90;;;;;;5030006;28;20120;-86
2022/01/25 11:09:09;;;;;;;57.15;28.52;;;6.20;99.90;;;;;;5021844;28;20038;-86
2022/01/25 11:11:52;;;;;;;54.40;30.05;;;5.40;99.90;;;;;;5021745;28;20041;-86
2022/01/25 11:17:02;;;;;;;59.40;29.90;;;4.60;99.90;;;;;;5018026;28;20050;-86
2022/01/25 11:19:29;;;;;;;59.75;30.73;;;4.60;99.90;;;;;;5033752;28;20121;-86
2022/01/25 11:21:58;;;;;;;60.58;29.92;;;5.70;99.90;;;;;;5024499;28;20033;-86
2022/01/25 11:24:26;;;;;;;58.92;30.33;;;4.60;99.90;;;;;;5026633;28;20116;-86
2022/01/25 11:26:53;;;;;;;58.88;30.90;;;4.60;99.90;;;;;;5029687;28;20137;-86
2022/01/25 11:29:20;;;;;;;57.97;29.85;;;5.00;99.90;;;;;;5005713;28;20037;-86
2022/01/25 11:32:00;;;;;;;57.00;29.33;;;5.00;99.90;;;;;;5031632;28;20059;-85
2022/01/25 11:34:28;;;;;;;55.42;30.23;;;5.60;99.90;;;;;;5023920;28;20045;-85
2022/01/25 11:36:57;;;;;;;55.75;29.92;;;5.60;99.90;;;;;;5008063;28;20072;-86
2022/01/25 11:39:24;;;;;;;55.53;29.25;;;4.70;99.90;;;;;;5034982;28;20106;-87
2022/01/25 11:41:52;;;;;;;57.03;30.20;;;4.70;99.90;;;;;;5003491;28;20095;-86
2022/01/25 11:44:26;;;;;;;59.00;31.02;;;5.80;99.90;;;;;;5036165;28;20033;-86
2022/01/25 11:46:58;;;;;;;60.80;31.88;;;4.70;99.90;;;;;;5019642;28;20495;-85
2022/01/25 11:49:24;;;;;;;56.55;30.27;;;5.40;99.90;;;;;;5025528;28;20435;-86
2022/01/25 11:52:12;;;;;;;63.75;31.45;;;4.70;99.90;;;;;;5022808;28;20064;-86
2022/01/25 11:54:37;;;;;;;59.78;30.40;;;4.70;99.90;;;;;;5031593;28;20124;-87
2022/01/25 11:57:11;;;;;;;58.47;29.35;;;4.70;99.90;;;;;;5002116;28;20112;-88
2022/01/25 11:59:38;;;;;;;58.78;30.17;;;4.70;99.90;;;;;;5008784;28;20067;-86
2022/01/25 12:02:04;;;;;;;56.53;29.83;;;4.70;99.90;;;;;;5018712;28;20038;-88
2022/01/25 12:04:30;;;;;;;56.65;29.83;;;4.70;99.90;;;;;;5025474;28;20041;-88
2022/01/25 12:07:02;;;;;;;57.05;29.45;;;6.10;99.90;;;;;;5002808;28;20060;-87
2022/01/25 12:09:47;;;;;;;57.58;29.83;;;4.80;99.90;;;;;;4988109;28;20511;-89
2022/01/25 12:12:15;;;;;;;57.05;29.90;;;4.70;99.90;;;;;;5027479;28;20447;-87
2022/01/25 12:14:49;;;;;;;59.42;29.10;;;4.70;99.90;;;;;;5009218;28;20045;-88
2022/01/25 12:17:26;;;;;;;56.53;29.33;;;4.70;99.90;;;;;;5018191;28;20041;-92
2022/01/25 12:19:58;;;;;;;58.13;31.05;;;4.70;99.90;;;;;;5016973;28;20029;-89
2022/01/25 12:25:19;;;;;;;56.90;28.95;;;4.90;99.90;;;;;;5041051;28;20040;-89
2022/01/25 12:28:00;;;;;;;57.58;28.80;;;4.70;99.90;;;;;;5034711;28;20057;-88
2022/01/25 12:30:25;;;;;;;55.97;29.17;;;4.70;99.90;;;;;;5020575;28;20049;-87
2022/01/25 12:33:04;;;;;;;56.80;29.95;;;6.60;99.90;;;;;;5026523;28;20048;-89
2022/01/25 12:35:44;;;;;;;56.25;30.45;;;4.70;99.90;;;;;;5033748;28;20033;-86
2022/01/25 12:38:10;;;;;;;59.88;31.13;;;4.70;99.90;;;;;;5041066;28;20053;-87
2022/01/25 12:40:47;;;;;;;59.88;30.75;;;5.90;99.90;;;;;;5027607;28;20037;-88
2022/01/25 12:43:19;;;;;;;60.40;30.67;;;4.70;99.90;;;;;;5026568;28;20110;-89
2022/01/25 12:46:03;;;;;;;59.92;29.60;;;4.70;99.90;;;;;;5026442;28;20038;-86
2022/01/25 12:48:31;;;;;;;58.17;30.85;;;5.40;99.90;;;;;;5023492;28;20264;-87
2022/01/25 12:51:04;;;;;;;59.97;30.08;;;4.70;99.90;;;;;;5038390;28;20037;-87
2022/01/25 12:53:32;;;;;;;56.40;29.23;;;4.70;99.90;;;;;;5033088;28;20052;-86
2022/01/25 12:56:03;;;;;;;59.80;29.42;;;6.10;99.90;;;;;;5035710;28;20114;-86
2022/01/25 12:58:31;;;;;;;59.85;31.10;;;4.70;99.90;;;;;;5029825;28;20163;-88
2022/01/25 13:01:01;;;;;;;62.55;31.52;;;6.20;99.90;;;;;;5039805;28;20080;-88
2022/01/25 13:03:31;;;;;;;60.00;29.77;;;4.70;99.90;;;;;;5044016;28;20267;-87
2022/01/25 13:06:19;;;;;;;62.15;30.67;;;5.40;99.90;;;;;;5030237;28;20095;-86
2022/01/25 13:09:09;;;;;;;62.03;30.20;;;4.70;99.90;;;;;;5019533;28;20467;-86
2022/01/25 13:16:49;;;;;;;60.55;31.38;;;4.70;99.90;;;;;;5029335;28;20041;-86
2022/01/25 13:19:28;;;;;;;58.40;29.95;;;4.70;99.90;;;;;;5039333;28;20080;-87
2022/01/25 13:21:55;;;;;;;56.08;29.08;;;4.70;99.90;;;;;;5024345;28;20041;-86
2022/01/25 13:24:26;;;;;;;60.40;31.23;;;5.40;99.90;;;;;;5038671;28;20029;-86
2022/01/25 13:27:02;;;;;;;57.15;30.42;;;4.70;99.90;;;;;;5033335;28;20040;-87
2022/01/25 13:32:30;;;;;;;60.58;31.23;;;4.70;99.90;;;;;;5035654;28;20502;-88
2022/01/25 13:35:05;;;;;;;56.13;29.45;;;4.70;99.90;;;;;;5048124;28;20052;-86
2022/01/25 13:37:31;;;;;;;61.88;30.17;;;4.70;99.90;;;;;;5019649;28;20095;-85
2022/01/25 13:40:03;;;;;;;55.75;28.65;;;4.70;99.90;;;;;;5030502;28;20051;-85
2022/01/25 13:42:42;;;;;;;59.13;29.83;;;4.70;99.90;;;;;;5014660;28;20060;-85
2022/01/25 13:48:01;;;;;;;58.97;30.70;;;5.70;99.90;;;;;;5043199;28;20047;-88
2022/01/25 13:50:27;;;;;;;60.03;29.90;;;4.60;99.90;;;;;;5023656;28;20132;-87
2022/01/25 13:52:53;;;;;;;57.33;30.52;;;4.60;99.90;;;;;;5036018;28;20119;-86
2022/01/25 13:55:19;;;;;;;59.17;30.92;;;4.90;99.90;;;;;;5002251;28;20497;-88
2022/01/25 13:57:45;;;;;;;58.60;30.40;;;4.60;99.90;;;;;;5029359;28;20106;-86
2022/01/25 14:00:12;;;;;;;57.42;29.42;;;4.60;99.90;;;;;;5011533;28;20052;-86
2022/01/25 14:02:39;;;;;;;59.67;31.90;;;4.70;99.90;;;;;;5019128;28;20051;-86
2022/01/25 14:05:06;;;;;;;60.13;29.60;;;4.70;99.90;;;;;;5021616;28;20149;-88
2022/01/25 14:07:38;;;;;;;62.58;30.50;;;4.20;99.90;;;;;;5031305;28;20505;-88
2022/01/25 14:10:11;;;;;;;56.97;29.95;;;4.70;99.90;;;;;;4984896;28;20033;-87
2022/01/25 14:23:48;;;;;;;59.00;31.67;;;4.70;99.90;;;;;;5045350;28;20038;-86
2022/01/25 14:26:14;;;;;;;60.70;30.52;;;4.60;99.90;;;;;;5024510;28;20033;-88
2022/01/25 14:28:54;;;;;;;63.35;29.05;;;4.70;99.90;;;;;;5003473;28;20474;-87
2022/01/25 14:31:23;;;;;;;61.25;30.67;;;5.70;99.90;;;;;;5022246;28;20114;-87
2022/01/25 14:33:51;;;;;;;60.67;30.17;;;4.70;99.90;;;;;;5027262;28;20151;-86
2022/01/25 14:36:17;;;;;;;58.33;31.05;;;5.80;99.90;;;;;;5006598;28;20049;-87
2022/01/25 14:38:45;;;;;;;59.80;31.27;;;4.60;99.90;;;;;;5015961;28;20033;-85
2022/01/25 14:41:15;;;;;;;60.47;29.80;;;6.10;99.90;;;;;;5012114;28;20034;-86
2022/01/25 14:43:54;;;;;;;62.08;30.83;;;4.60;99.90;;;;;;5031524;28;20079;-88
2022/01/25 14:46:31;;;;;;;61.13;30.25;;;5.00;99.90;;;;;;5024141;28;20689;-87
2022/01/25 14:49:06;;;;;;;54.60;28.90;;;4.70;99.90;;;;;;5039262;28;20055;-86
2022/01/25 14:51:33;;;;;;;58.63;28.88;;;5.50;99.90;;;;;;5038117;28;20112;-87
2022/01/25 14:53:59;;;;;;;58.90;29.63;;;6.10;99.90;;;;;;5017036;28;20140;-87
2022/01/25 14:56:33;;;;;;;62.08;29.90;;;4.60;99.90;;;;;;5022503;28;20226;-85
2022/01/25 14:59:23;;;;;;;58.42;29.65;;;5.90;99.90;;;;;;5022192;28;20065;-87